Time;durP1;ratioP1;P1;durP2;ratioP2;P2;SDS_P1;SDS_P2;PMS_P1;PMS_P2;Temp;Humidity;BMP_temperature;BMP_pressure;BME280_temperature;BME280_humidity;BME280_pressure;Samples;Min_cycle;Max_cycle;Signal;HPM_P1;HPM_P2
2021/04/16 00:01:41;;;;;;;4.85;3.40;;;;;;;4.16;75.26;97863.86;1653172;86;21210;-63
2021/04/16 00:04:10;;;;;;;5.80;3.55;;;;;;;4.21;75.14;97857.13;1652783;87;21596;-62
2021/04/16 00:06:39;;;;;;;5.65;4.05;;;;;;;4.26;75.04;97862.32;1653021;87;21501;-65
2021/04/16 00:09:08;;;;;;;5.67;3.08;;;;;;;4.30;74.96;97861.19;1652890;87;21172;-64
2021/04/16 00:11:36;;;;;;;3.65;2.20;;;;;;;4.34;74.99;97848.94;1652785;87;21197;-64
2021/04/16 00:14:04;;;;;;;6.22;3.70;;;;;;;4.37;74.89;97856.42;1676981;84;21173;-64
2021/04/16 00:16:32;;;;;;;4.83;3.05;;;;;;;4.41;74.82;97844.17;1677253;84;21668;-63
2021/04/16 00:19:00;;;;;;;5.17;2.80;;;;;;;4.43;74.69;97847.02;1677159;84;21328;-64
2021/04/16 00:21:29;;;;;;;4.15;2.77;;;;;;;4.47;74.52;97846.33;1677010;85;21165;-64
2021/04/16 00:23:57;;;;;;;4.05;2.52;;;;;;;4.49;74.54;97844.00;1677274;84;21787;-63
2021/04/16 00:26:25;;;;;;;4.67;2.85;;;;;;;4.48;74.70;97844.09;1677352;85;21755;-63
2021/04/16 00:28:53;;;;;;;5.35;2.77;;;;;;;4.50;74.47;97840.97;1677293;84;21302;-64
2021/04/16 00:31:25;;;;;;;4.17;2.92;;;;;;;4.53;74.29;97844.14;1677326;85;21601;-64
2021/04/16 00:33:54;;;;;;;4.70;2.02;;;;;;;4.54;74.12;97839.37;1677367;85;21196;-63
2021/04/16 00:36:42;;;;;;;6.10;3.08;;;;;;;4.55;73.98;97839.70;1677454;85;21176;-64
2021/04/16 00:39:10;;;;;;;5.62;2.92;;;;;;;4.55;73.79;97831.98;1678795;85;21581;-64
2021/04/16 00:41:39;;;;;;;4.42;2.50;;;;;;;4.53;73.59;97837.72;1678693;85;21654;-63
2021/04/16 00:44:07;;;;;;;3.40;2.17;;;;;;;4.50;73.52;97839.69;1678658;85;21180;-63
2021/04/16 00:52:30;;;;;;;4.47;2.75;;;;;;;4.29;73.19;97840.25;1683774;83;21155;-64
2021/04/16 00:54:59;;;;;;;4.33;2.42;;;;;;;4.22;73.52;97835.64;1673151;84;21211;-63
2021/04/16 00:57:27;;;;;;;2.62;2.10;;;;;;;4.16;73.58;97834.31;1698700;84;21152;-63
2021/04/16 00:59:57;;;;;;;2.55;2.00;;;;;;;4.09;74.51;97833.55;1672890;84;21137;-63
2021/04/16 01:02:26;;;;;;;4.22;2.62;;;;;;;4.01;74.53;97835.86;1698418;84;21177;-64
2021/04/16 01:04:55;;;;;;;5.75;2.35;;;;;;;3.89;75.83;97834.91;1698429;84;21583;-63
2021/04/16 01:07:23;;;;;;;2.95;2.45;;;;;;;3.81;75.36;97832.87;1698633;84;21169;-63
2021/04/16 01:09:51;;;;;;;5.97;3.15;;;;;;;3.79;74.93;97829.59;1698706;84;21228;-63
2021/04/16 01:12:39;;;;;;;5.15;2.20;;;;;;;3.76;75.91;97832.84;1698730;84;21605;-64
2021/04/16 01:15:25;;;;;;;4.97;2.62;;;;;;;3.67;76.83;97835.56;1638070;86;21175;-64
2021/04/16 01:18:01;;;;;;;4.97;2.58;;;;;;;3.60;76.77;97833.50;1670408;85;21147;-64
2021/04/16 01:20:36;;;;;;;3.37;2.20;;;;;;;3.59;76.43;97833.14;1670652;85;21128;-63
2021/04/16 01:23:22;;;;;;;3.92;2.52;;;;;;;3.59;75.61;97831.85;1670978;86;21179;-64
2021/04/16 01:25:51;;;;;;;5.62;2.20;;;;;;;3.60;75.61;97832.22;1671395;86;21143;-65
2021/04/16 01:28:19;;;;;;;11.28;2.30;;;;;;;3.58;76.21;97834.09;1638786;87;21187;-64
2021/04/16 01:31:02;;;;;;;4.97;2.72;;;;;;;3.58;75.83;97834.09;1671071;86;22271;-65
2021/04/16 01:33:33;;;;;;;4.47;2.75;;;;;;;3.57;75.70;97833.72;1638152;87;21742;-63
2021/04/16 01:36:06;;;;;;;6.00;2.70;;;;;;;3.57;75.72;97832.44;1671024;85;21184;-63
2021/04/16 01:38:35;;;;;;;5.10;2.83;;;;;;;3.57;75.58;97831.97;1638175;86;21512;-64
2021/04/16 01:41:03;;;;;;;4.60;2.80;;;;;;;3.57;75.66;97828.58;1671104;86;21183;-63
2021/04/16 01:43:36;;;;;;;3.58;2.67;;;;;;;3.56;75.59;97832.89;1671072;85;21139;-64
2021/04/16 01:46:12;;;;;;;3.77;2.20;;;;;;;3.54;75.17;97824.94;1670843;86;21196;-62
2021/04/16 01:48:46;;;;;;;3.20;1.90;;;;;;;3.52;75.07;97826.77;1638150;87;21305;-63
2021/04/16 01:51:27;;;;;;;3.15;2.45;;;;;;;3.50;75.04;97822.22;1670484;85;21199;-63
2021/04/16 01:54:13;;;;;;;3.62;2.62;;;;;;;3.48;75.96;97826.61;1670967;85;21167;-63
2021/04/16 01:56:45;;;;;;;5.58;2.85;;;;;;;3.38;78.14;97819.18;1638246;87;21544;-64
2021/04/16 01:59:20;;;;;;;4.60;2.92;;;;;;;3.31;78.27;97821.30;1670829;85;21612;-63
2021/04/16 02:01:49;;;;;;;3.83;2.77;;;;;;;3.28;77.56;97816.38;1638467;87;21341;-64
2021/04/16 02:04:19;;;;;;;2.98;2.40;;;;;;;3.26;77.03;97807.98;1671017;85;21665;-62
2021/04/16 02:06:50;;;;;;;6.22;2.75;;;;;;;3.25;77.67;97806.33;1671259;86;21247;-63
2021/04/16 02:09:25;;;;;;;3.92;3.08;;;;;;;3.24;77.35;97811.91;1638990;86;21329;-72
2021/04/16 02:11:53;;;;;;;5.75;2.77;;;;;;;3.23;77.18;97806.42;1671644;85;21171;-63
2021/04/16 02:14:25;;;;;;;4.35;2.90;;;;;;;3.22;76.99;97800.95;1671556;86;21184;-62
2021/04/16 02:16:58;;;;;;;2.58;2.02;;;;;;;3.23;76.93;97801.77;1682578;84;21158;-62
2021/04/16 02:19:27;;;;;;;3.42;2.83;;;;;;;3.21;76.85;97798.47;1696378;85;21175;-64
2021/04/16 02:21:55;;;;;;;3.52;2.20;;;;;;;3.20;76.80;97798.92;1696255;85;21162;-66
2021/04/16 02:24:24;;;;;;;4.22;2.80;;;;;;;3.20;76.82;97797.64;1695660;85;21616;-63
2021/04/16 02:26:52;;;;;;;3.67;2.55;;;;;;;3.18;76.78;97795.66;1695457;85;21203;-62
2021/04/16 02:29:22;;;;;;;5.53;2.47;;;;;;;3.19;76.84;97799.05;1695400;85;21598;-64
2021/04/16 02:31:51;;;;;;;4.85;3.12;;;;;;;3.20;76.85;97805.80;1695419;85;21592;-64
2021/04/16 02:34:24;;;;;;;2.27;2.05;;;;;;;3.21;76.84;97801.03;1695443;85;21170;-62
2021/04/16 02:36:57;;;;;;;3.30;2.08;;;;;;;3.22;77.10;97802.23;1695338;84;21164;-65
2021/04/16 02:39:26;;;;;;;4.85;1.80;;;;;;;3.24;76.95;97805.50;1695461;85;21163;-64
2021/04/16 02:41:55;;;;;;;5.30;3.12;;;;;;;3.26;77.10;97803.67;1695448;85;21219;-63
2021/04/16 02:44:23;;;;;;;5.55;3.40;;;;;;;3.28;77.40;97805.66;1695496;85;21635;-63
2021/04/16 02:46:53;;;;;;;4.42;2.77;;;;;;;3.30;77.03;97807.68;1695400;85;21582;-63
2021/04/16 02:49:23;;;;;;;3.98;2.80;;;;;;;3.32;77.70;97804.99;1695674;85;21171;-65
2021/04/16 02:51:53;;;;;;;5.17;3.05;;;;;;;3.28;78.74;97803.09;1695571;85;21170;-62
2021/04/16 02:54:21;;;;;;;4.42;2.17;;;;;;;3.26;78.78;97804.95;1695428;84;21158;-62
2021/04/16 02:56:49;;;;;;;4.75;3.37;;;;;;;3.30;78.20;97801.72;1695656;85;22148;-64
2021/04/16 02:59:23;;;;;;;3.72;2.42;;;;;;;3.32;78.47;97798.12;1695561;85;21162;-62
2021/04/16 03:01:52;;;;;;;4.78;3.45;;;;;;;3.34;78.55;97800.59;1695201;85;21611;-62
2021/04/16 03:04:20;;;;;;;3.67;2.90;;;;;;;3.35;78.01;97800.47;1695241;85;21155;-64
2021/04/16 03:06:49;;;;;;;4.10;3.25;;;;;;;3.39;78.15;97797.70;1695343;85;21138;-61
2021/04/16 03:09:17;;;;;;;5.55;3.58;;;;;;;3.37;78.58;97800.39;1695536;84;21214;-64
2021/04/16 03:11:44;;;;;;;7.65;3.72;;;;;;;3.40;78.38;97807.88;1695423;85;21166;-63
2021/04/16 03:14:12;;;;;;;4.72;3.02;;;;;;;3.44;78.24;97805.47;1695427;85;21201;-64
2021/04/16 03:16:41;;;;;;;6.50;3.45;;;;;;;3.47;77.88;97809.56;1668551;84;21262;-63
2021/04/16 03:19:11;;;;;;;5.55;3.55;;;;;;;3.50;78.06;97808.89;1666908;85;21197;-62
2021/04/16 03:21:39;;;;;;;4.17;3.25;;;;;;;3.54;77.88;97810.82;1666794;86;21192;-63
2021/04/16 03:24:09;;;;;;;7.15;3.87;;;;;;;3.59;77.87;97812.59;1666559;86;21251;-62
2021/04/16 03:26:38;;;;;;;4.05;3.05;;;;;;;3.64;77.74;97821.64;1666807;85;21140;-63
2021/04/16 03:29:06;;;;;;;4.87;2.77;;;;;;;3.69;77.61;97818.77;1666835;86;21580;-63
2021/04/16 03:31:34;;;;;;;4.08;3.05;;;;;;;3.75;77.50;97824.77;1666791;85;21238;-64
2021/04/16 03:34:03;;;;;;;6.20;3.75;;;;;;;3.82;77.41;97824.24;1666997;86;21585;-63
2021/04/16 03:36:32;;;;;;;4.60;3.30;;;;;;;3.88;77.21;97815.31;1667043;85;21166;-65
2021/04/16 03:39:00;;;;;;;3.45;2.83;;;;;;;3.91;77.11;97818.12;1667079;86;21140;-63
2021/04/16 03:41:29;;;;;;;5.83;3.40;;;;;;;3.95;76.89;97819.09;1666874;86;21188;-63
2021/04/16 03:43:57;;;;;;;4.03;2.75;;;;;;;4.00;76.80;97819.61;1667013;86;21297;-64
2021/04/16 03:46:25;;;;;;;3.77;2.98;;;;;;;4.03;76.45;97824.99;1667060;86;21563;-63
2021/04/16 03:48:54;;;;;;;3.85;2.42;;;;;;;4.03;76.44;97822.42;1666905;85;21790;-63
2021/04/16 03:51:22;;;;;;;3.47;2.45;;;;;;;3.96;77.01;97820.75;1666847;86;21163;-63
2021/04/16 03:53:50;;;;;;;6.15;3.42;;;;;;;3.94;76.68;97821.77;1666846;86;21144;-64
2021/04/16 03:56:18;;;;;;;3.27;2.50;;;;;;;3.88;76.86;97824.30;1667000;85;21209;-62
2021/04/16 03:58:46;;;;;;;4.90;3.37;;;;;;;3.89;76.71;97825.12;1667035;85;21325;-63
2021/04/16 04:01:17;;;;;;;4.80;2.87;;;;;;;3.88;76.62;97825.59;1666900;86;21187;-63
2021/04/16 04:03:45;;;;;;;3.87;2.87;;;;;;;3.90;76.26;97827.58;1666941;86;21178;-62
2021/04/16 04:06:13;;;;;;;4.92;3.15;;;;;;;3.88;76.46;97829.44;1666990;86;21348;-64
2021/04/16 04:08:41;;;;;;;5.90;2.47;;;;;;;3.85;76.68;97833.97;1666930;85;21187;-65
2021/04/16 04:11:09;;;;;;;5.62;2.75;;;;;;;3.82;76.36;97838.38;1667014;86;21179;-62
2021/04/16 04:13:37;;;;;;;4.37;2.85;;;;;;;3.82;76.59;97837.09;1666745;86;21213;-64
2021/04/16 04:16:06;;;;;;;5.22;3.08;;;;;;;3.69;77.56;97834.19;1670940;85;21157;-64
2021/04/16 04:18:34;;;;;;;6.65;4.03;;;;;;;3.60;77.76;97827.91;1678643;85;21188;-64
2021/04/16 04:23:44;;;;;;;7.03;3.00;;;;;;;3.56;77.28;97839.77;1631522;87;21199;-64
2021/04/16 04:26:12;;;;;;;4.65;2.90;;;;;;;3.55;77.12;97838.94;1647249;87;21140;-63
2021/04/16 04:28:40;;;;;;;8.60;4.00;;;;;;;3.55;77.16;97838.11;1711265;82;21183;-64
2021/04/16 04:31:10;;;;;;;6.83;3.52;;;;;;;3.54;77.75;97839.06;1711347;84;21648;-63
2021/04/16 04:33:38;;;;;;;4.25;3.35;;;;;;;3.48;77.72;97835.60;1711290;83;21183;-64
2021/04/16 04:36:28;;;;;;;4.67;3.00;;;;;;;3.47;77.33;97837.80;1714740;84;21127;-63
2021/04/16 04:38:58;;;;;;;5.83;3.55;;;;;;;3.46;77.22;97839.57;1603950;88;21713;-66
2021/04/16 04:41:26;;;;;;;7.60;3.70;;;;;;;3.44;77.08;97835.45;1602291;88;21303;-68
2021/04/16 04:43:54;;;;;;;4.15;2.95;;;;;;;3.43;77.64;97838.92;1602286;89;21211;-64
2021/04/16 04:46:22;;;;;;;4.78;2.67;;;;;;;3.38;77.69;97838.43;1602105;89;21775;-62
2021/04/16 04:48:50;;;;;;;4.03;2.87;;;;;;;3.32;79.52;97835.34;1602303;89;21199;-65
2021/04/16 04:51:18;;;;;;;4.58;2.50;;;;;;;3.27;80.67;97842.50;1603792;89;21168;-62
2021/04/16 04:53:46;;;;;;;7.35;3.58;;;;;;;3.26;79.86;97834.47;1604358;89;21193;-62
2021/04/16 04:56:14;;;;;;;6.50;4.37;;;;;;;3.28;79.83;97839.48;1576706;91;21253;-62
2021/04/16 04:58:42;;;;;;;7.20;3.42;;;;;;;3.30;79.54;97842.78;1606238;89;21199;-62
2021/04/16 05:01:32;;;;;;;4.47;3.55;;;;;;;3.33;79.31;97838.73;1605994;89;21233;-61
2021/04/16 05:04:06;;;;;;;4.00;2.80;;;;;;;3.35;78.59;97844.11;1719539;83;21183;-62
2021/04/16 05:06:34;;;;;;;5.67;3.10;;;;;;;3.37;78.49;97845.30;1719538;83;21166;-62
2021/04/16 05:09:03;;;;;;;6.28;3.58;;;;;;;3.39;77.13;97852.88;1721939;82;21215;-63
2021/04/16 05:11:31;;;;;;;5.85;3.92;;;;;;;3.40;77.94;97850.23;1720297;82;21167;-62
2021/04/16 05:13:59;;;;;;;5.45;4.00;;;;;;;3.44;76.88;97852.13;1715130;83;21569;-62
2021/04/16 05:16:27;;;;;;;4.45;3.52;;;;;;;3.46;78.65;97851.58;1679154;85;21186;-62
2021/04/16 05:19:07;;;;;;;41.35;20.12;;;;;;;3.45;78.95;97852.04;1710287;82;21155;-64
2021/04/16 05:21:37;;;;;;;60.43;28.52;;;;;;;3.48;78.72;97851.83;1687923;85;21168;-63
2021/04/16 05:24:07;;;;;;;45.33;22.77;;;;;;;3.50;78.88;97846.12;1688117;84;21195;-64
2021/04/16 05:26:38;;;;;;;69.67;34.35;;;;;;;3.55;78.91;97844.08;1680746;85;21600;-64
2021/04/16 05:29:06;;;;;;;83.85;40.38;;;;;;;3.61;78.61;97849.28;1680849;85;21203;-64
2021/04/16 05:31:36;;;;;;;29.20;16.05;;;;;;;3.63;78.40;97844.84;1708853;84;21280;-64
2021/04/16 05:34:05;;;;;;;9.40;6.40;;;;;;;3.70;77.88;97846.08;1710995;83;21195;-64
2021/04/16 05:36:33;;;;;;;6.17;3.80;;;;;;;3.74;77.30;97843.66;1688040;85;21599;-63
2021/04/16 05:39:01;;;;;;;5.28;3.45;;;;;;;3.77;77.84;97845.55;1688137;85;21619;-64
2021/04/16 05:41:29;;;;;;;6.12;4.05;;;;;;;3.86;77.30;97844.13;1680766;85;21495;-63
2021/04/16 05:43:58;;;;;;;5.25;3.62;;;;;;;3.95;76.83;97843.51;1695048;85;21566;-65
2021/04/16 05:46:26;;;;;;;6.95;4.62;;;;;;;4.06;76.45;97844.87;1706781;83;21164;-64
2021/04/16 05:48:54;;;;;;;7.08;3.55;;;;;;;4.16;76.45;97842.51;1710883;82;21597;-63
2021/04/16 05:51:23;;;;;;;6.55;4.35;;;;;;;4.26;75.82;97846.07;1710873;83;21183;-64
2021/04/16 05:53:52;;;;;;;3.98;2.77;;;;;;;4.35;75.59;97842.05;1710783;83;21649;-64
2021/04/16 05:56:21;;;;;;;5.57;3.57;;;;;;;4.37;75.06;97847.42;1710458;82;21188;-64
2021/04/16 05:58:53;;;;;;;5.95;3.17;;;;;;;4.41;74.90;97847.57;1710247;84;21149;-64
2021/04/16 06:01:22;;;;;;;6.03;3.05;;;;;;;4.48;74.80;97853.09;1684839;83;21659;-63
2021/04/16 06:03:51;;;;;;;4.33;3.20;;;;;;;4.54;74.70;97854.80;1687727;83;21159;-64
2021/04/16 06:06:22;;;;;;;7.70;3.77;;;;;;;4.59;74.75;97850.13;1680487;84;21171;-64
2021/04/16 06:08:50;;;;;;;4.83;3.00;;;;;;;4.67;74.67;97847.84;1671400;83;21683;-64
2021/04/16 06:11:19;;;;;;;11.18;3.47;;;;;;;4.74;74.42;97847.78;1677469;84;21669;-64
2021/04/16 06:13:48;;;;;;;3.12;2.62;;;;;;;4.74;73.08;97845.67;1687838;83;21222;-63
2021/04/16 06:16:18;;;;;;;2.58;1.82;;;;;;;4.77;73.32;97849.30;1684161;83;21560;-63
2021/04/16 06:19:09;;;;;;;4.97;2.27;;;;;;;4.85;73.18;97847.47;1687701;83;21223;-64
2021/04/16 06:21:39;;;;;;;3.47;1.62;;;;;;;4.91;71.96;97849.13;1664388;86;21214;-63
2021/04/16 06:24:09;;;;;;;5.25;2.42;;;;;;;4.87;69.77;97847.70;1664791;86;21214;-64
2021/04/16 06:26:41;;;;;;;5.60;2.30;;;;;;;4.92;69.07;97852.52;1661080;86;21246;-64
2021/04/16 06:29:10;;;;;;;2.25;1.65;;;;;;;4.97;68.73;97859.45;1664562;86;21190;-63
2021/04/16 06:31:43;;;;;;;4.83;2.65;;;;;;;5.13;69.44;97856.13;1664682;86;21258;-63
2021/04/16 06:34:12;;;;;;;4.85;2.58;;;;;;;5.24;68.33;97855.70;1662073;85;21606;-63
2021/04/16 06:36:40;;;;;;;3.35;2.10;;;;;;;5.33;67.17;97859.83;1667414;85;21203;-63
2021/04/16 06:39:08;;;;;;;3.80;2.00;;;;;;;5.43;65.50;97864.64;1654602;85;21274;-63
2021/04/16 06:41:39;;;;;;;3.75;1.70;;;;;;;5.69;66.89;97863.06;1659893;85;21651;-63
2021/04/16 06:44:24;;;;;;;4.12;2.22;;;;;;;5.90;67.09;97861.13;1667887;85;21207;-64
2021/04/16 06:47:15;;;;;;;2.33;1.75;;;;;;;6.10;63.81;97859.98;1665110;86;21194;-64
2021/04/16 06:49:44;;;;;;;4.87;2.00;;;;;;;6.25;62.24;97861.02;1665246;86;21186;-64
2021/04/16 06:52:20;;;;;;;2.62;1.65;;;;;;;6.54;62.82;97867.30;1665150;86;21207;-64
2021/04/16 06:55:13;;;;;;;2.60;1.50;;;;;;;6.74;61.81;97860.58;1668946;85;21700;-64
2021/04/16 06:57:49;;;;;;;4.83;2.17;;;;;;;6.92;60.72;97865.59;1678958;85;21515;-63
2021/04/16 07:00:41;;;;;;;3.37;1.67;;;;;;;7.02;58.61;97863.44;1658526;85;21179;-64
2021/04/16 07:03:42;;;;;;;3.62;2.15;;;;;;;6.95;58.42;97870.03;1679066;85;21600;-63
2021/04/16 07:06:15;;;;;;;4.05;2.47;;;;;;;7.11;58.07;97864.00;1638960;87;21664;-64
2021/04/16 07:08:54;;;;;;;3.65;1.95;;;;;;;7.10;57.60;97866.22;1639121;87;21205;-66
2021/04/16 07:11:29;;;;;;;2.92;1.50;;;;;;;7.14;59.10;97874.08;1636423;87;21236;-64
2021/04/16 07:14:00;;;;;;;2.85;1.25;;;;;;;7.37;59.04;97870.91;1639104;87;21946;-64
2021/04/16 07:16:31;;;;;;;2.87;1.90;;;;;;;7.40;58.25;97867.25;1638855;87;21165;-64
2021/04/16 07:19:08;;;;;;;2.58;1.60;;;;;;;7.52;58.58;97867.55;1638978;87;21196;-64
2021/04/16 07:21:37;;;;;;;2.95;1.90;;;;;;;7.62;58.14;97865.86;1639406;87;21184;-64
2021/04/16 07:24:07;;;;;;;2.47;1.72;;;;;;;7.68;57.29;97871.80;1639022;87;21207;-69
2021/04/16 07:26:45;;;;;;;2.33;1.67;;;;;;;7.76;57.75;97871.17;1614484;87;21189;-64
2021/04/16 07:29:25;;;;;;;1.87;1.45;;;;;;;7.95;55.32;97869.51;1638970;87;21216;-63
2021/04/16 07:32:02;;;;;;;3.05;2.30;;;;;;;8.24;56.53;97868.83;1850139;76;23345;-64
2021/04/16 07:34:35;;;;;;;4.28;1.98;;;;;;;8.23;52.79;97874.94;1827614;77;21118;-65
2021/04/16 07:37:20;;;;;;;1.80;1.27;;;;;;;8.38;53.12;97871.08;1827653;77;21298;-65
2021/04/16 07:40:05;;;;;;;2.25;1.62;;;;;;;8.60;56.04;97867.48;1827448;77;21641;-64
2021/04/16 07:42:44;;;;;;;1.65;1.20;;;;;;;8.75;52.42;97869.56;1827562;77;21181;-65
2021/04/16 07:45:41;;;;;;;2.27;1.60;;;;;;;8.72;53.80;97871.09;1827910;77;21689;-71
2021/04/16 07:48:41;;;;;;;2.40;1.32;;;;;;;8.90;55.38;97873.87;1827715;77;21584;-68
2021/04/16 07:51:10;;;;;;;1.90;1.10;;;;;;;8.97;51.23;97879.67;1733362;81;21124;-64
2021/04/16 07:53:49;;;;;;;2.35;1.35;;;;;;;8.81;50.93;97872.90;1735832;81;21147;-65
2021/04/16 07:56:21;;;;;;;2.25;1.22;;;;;;;8.98;53.61;97879.20;1735770;81;21516;-64
2021/04/16 07:59:14;;;;;;;2.67;1.52;;;;;;;9.10;54.24;97878.59;1735906;81;21607;-64
2021/04/16 08:01:50;;;;;;;2.27;1.27;;;;;;;9.16;51.19;97875.45;1736127;81;21199;-64
2021/04/16 08:04:50;;;;;;;1.60;1.00;;;;;;;8.98;49.31;97873.55;1735838;81;21194;-65
2021/04/16 08:07:33;;;;;;;1.60;1.02;;;;;;;9.21;49.60;97870.22;1692989;83;21148;-66
2021/04/16 08:10:25;;;;;;;2.37;1.45;;;;;;;9.58;54.38;97872.09;1692989;83;21590;-63
2021/04/16 08:13:07;;;;;;;27.93;12.68;;;;;;;9.60;49.63;97873.60;1725821;82;21218;-64
2021/04/16 08:15:32;;;;;;;9.68;4.45;;;;;;;9.91;50.20;97875.52;1725368;82;21164;-63
2021/04/16 08:18:14;;;;;;;3.35;2.45;;;;;;;9.85;46.62;97871.70;1725813;82;21148;-63
2021/04/16 08:21:12;;;;;;;3.92;1.55;;;;;;;10.05;49.85;97870.34;1724267;82;21108;-63
2021/04/16 08:23:56;;;;;;;1.95;1.30;;;;;;;9.96;47.21;97862.95;1729152;83;21182;-64
2021/04/16 08:26:29;;;;;;;1.62;1.42;;;;;;;10.27;50.20;97870.84;1726992;83;21237;-64
2021/04/16 08:29:24;;;;;;;1.67;0.93;;;;;;;10.48;49.73;97870.62;1726478;83;21589;-64
2021/04/16 08:32:27;;;;;;;1.40;1.00;;;;;;;10.66;48.00;97874.06;1726968;82;21149;-63
2021/04/16 08:35:07;;;;;;;1.20;1.00;;;;;;;10.79;47.76;97874.55;1727147;83;21658;-64
2021/04/16 08:37:41;;;;;;;1.15;0.95;;;;;;;10.84;47.65;97871.52;1726868;83;21165;-64
2021/04/16 08:40:14;;;;;;;1.70;1.10;;;;;;;10.95;45.92;97873.91;1726480;83;21159;-64
2021/04/16 08:42:43;;;;;;;1.35;0.90;;;;;;;11.00;47.29;97877.36;1726163;83;21441;-65
2021/04/16 08:45:26;;;;;;;1.80;1.12;;;;;;;10.98;46.12;97874.90;1726243;83;21312;-64
2021/04/16 08:48:20;;;;;;;3.17;1.40;;;;;;;10.90;45.28;97878.23;1724777;78;21245;-64
2021/04/16 08:50:52;;;;;;;1.87;1.02;;;;;;;10.87;43.83;97878.53;1638788;86;21243;-64
2021/04/16 08:53:20;;;;;;;2.50;1.17;;;;;;;10.60;43.70;97878.55;1645875;86;21603;-64
2021/04/16 08:55:52;;;;;;;2.20;1.12;;;;;;;10.74;47.76;97881.13;1645909;86;21590;-63
2021/04/16 08:58:36;;;;;;;3.80;2.20;;;;;;;10.78;48.96;97886.37;1645833;86;21161;-64
2021/04/16 09:01:15;;;;;;;2.55;1.17;;;;;;;10.74;48.58;97884.55;1646156;86;21197;-64
2021/04/16 09:03:54;;;;;;;1.80;1.12;;;;;;;10.70;44.17;97888.91;1646001;86;21193;-64
2021/04/16 09:06:58;;;;;;;2.22;1.12;;;;;;;10.74;46.44;97887.14;1645959;86;21161;-63
2021/04/16 09:10:02;;;;;;;3.65;0.98;;;;;;;10.63;48.52;97896.44;1680807;84;21170;-64
2021/04/16 09:12:44;;;;;;;1.15;0.90;;;;;;;10.44;48.15;97895.23;1680407;84;21662;-65
2021/04/16 09:15:27;;;;;;;1.17;1.07;;;;;;;10.25;48.67;97901.80;1680443;84;21162;-64
2021/04/16 09:18:03;;;;;;;3.52;1.20;;;;;;;9.79;48.32;97921.55;1680593;84;21142;-64
2021/04/16 09:20:39;;;;;;;2.05;1.30;;;;;;;8.40;51.25;97925.66;1680301;84;21144;-64
2021/04/16 09:23:34;;;;;;;1.27;0.93;;;;;;;8.71;51.45;97930.80;1680302;84;21166;-64
2021/04/16 09:26:03;;;;;;;2.02;1.25;;;;;;;8.28;53.18;97936.17;1678768;84;21563;-63
2021/04/16 09:28:54;;;;;;;2.00;1.15;;;;;;;7.91;54.80;97930.65;1680341;84;21154;-64
2021/04/16 09:31:42;;;;;;;2.05;1.20;;;;;;;7.77;55.07;97928.39;1680335;84;21193;-63
2021/04/16 09:34:21;;;;;;;2.25;1.25;;;;;;;7.38;58.00;97934.56;1680459;84;21575;-64
2021/04/16 09:36:55;;;;;;;1.98;1.60;;;;;;;7.23;58.63;97937.09;1680421;84;21251;-64
2021/04/16 09:39:37;;;;;;;2.50;1.42;;;;;;;7.05;59.40;97930.31;1680519;84;21591;-64
2021/04/16 09:45:35;;;;;;;3.02;1.87;;;;;;;6.61;60.53;97929.91;1629394;85;21188;-66
2021/04/16 09:48:24;;;;;;;3.90;1.35;;;;;;;6.16;62.75;97930.86;1676028;85;21169;-63
2021/04/16 09:51:21;;;;;;;2.42;1.55;;;;;;;6.21;61.50;97931.34;1673302;85;21232;-63
2021/04/16 09:54:24;;;;;;;1.57;1.47;;;;;;;6.31;62.02;97922.42;1823684;77;22566;-64
2021/04/16 09:57:08;;;;;;;2.85;1.70;;;;;;;6.32;60.63;97919.74;1827626;78;21286;-65
2021/04/16 09:59:41;;;;;;;5.12;1.72;;;;;;;6.48;63.32;97916.34;1827548;78;21158;-63
2021/04/16 10:02:35;;;;;;;2.75;1.60;;;;;;;6.69;61.51;97912.58;1827309;78;21214;-68
2021/04/16 10:05:20;;;;;;;2.33;1.27;;;;;;;6.80;61.02;97909.14;1757438;81;21164;-63
2021/04/16 10:07:57;;;;;;;2.57;1.60;;;;;;;6.99;60.59;97905.46;1757900;81;21153;-64
2021/04/16 10:10:40;;;;;;;;;;;;;;;7.24;60.14;97906.92;1760254;81;21580;-64
2021/04/16 10:13:41;;;;;;;2.22;1.42;;;;;;;7.36;59.63;97903.32;1757730;81;20158;-64
2021/04/16 10:16:24;;;;;;;3.60;2.08;;;;;;;7.76;58.97;97903.48;1698691;84;21203;-64
2021/04/16 10:18:53;;;;;;;2.58;1.50;;;;;;;7.98;57.37;97902.86;1640779;87;21196;-64
2021/04/16 10:21:29;;;;;;;3.22;1.70;;;;;;;8.19;54.84;97898.14;1655968;87;21530;-65
2021/04/16 12:40:31;;;;;;;1.25;0.80;;;;;;;11.82;39.26;97887.04;1721764;83;21229;-64
2021/04/16 12:43:03;;;;;;;1.55;0.85;;;;;;;11.97;38.87;97886.81;1670454;86;21210;-64
2021/04/16 12:45:31;;;;;;;1.57;0.70;;;;;;;12.00;39.02;97883.90;1678216;85;21167;-64
2021/04/16 12:48:00;;;;;;;1.17;0.68;;;;;;;12.05;40.08;97895.98;1678131;84;21272;-64
2021/04/16 12:50:32;;;;;;;0.95;0.57;;;;;;;11.84;37.12;97879.41;1678587;85;21584;-67
2021/04/16 12:53:00;;;;;;;0.68;0.60;;;;;;;11.94;39.32;97881.92;1678471;85;21279;-65
2021/04/16 12:55:29;;;;;;;0.88;0.50;;;;;;;12.00;39.38;97875.27;1678510;85;21174;-64
2021/04/16 12:58:06;;;;;;;0.90;0.60;;;;;;;12.09;39.25;97876.96;1678667;85;21595;-64
2021/04/16 13:00:43;;;;;;;1.00;0.70;;;;;;;12.20;40.21;97870.19;1678433;85;21131;-63
2021/04/16 13:03:24;;;;;;;0.98;0.70;;;;;;;12.28;40.18;97865.84;1678523;84;21584;-64
2021/04/16 13:05:55;;;;;;;0.68;0.65;;;;;;;12.36;40.77;97870.27;1678418;84;21170;-64
2021/04/16 13:08:23;;;;;;;1.20;0.80;;;;;;;12.71;38.56;97870.56;1678206;85;21211;-64
2021/04/16 13:10:52;;;;;;;0.80;0.68;;;;;;;12.95;41.15;97868.03;1678133;84;21242;-64
2021/04/16 13:13:20;;;;;;;1.57;1.10;;;;;;;12.97;39.06;97871.77;1683411;80;21187;-64
2021/04/16 13:15:48;;;;;;;1.70;0.80;;;;;;;12.89;37.98;97867.83;1663498;86;21168;-64
2021/04/16 13:18:22;;;;;;;1.05;0.70;;;;;;;12.95;39.72;97869.34;1663538;86;21724;-65
2021/04/16 13:20:51;;;;;;;0.80;0.70;;;;;;;13.08;38.93;97872.77;1663729;86;21577;-67
2021/04/16 13:23:21;;;;;;;0.78;0.60;;;;;;;13.16;38.27;97872.32;1663517;86;21164;-64
2021/04/16 13:25:49;;;;;;;1.50;0.80;;;;;;;13.24;36.17;97879.34;1663576;84;21655;-64
2021/04/16 13:28:17;;;;;;;0.65;0.53;;;;;;;13.19;37.84;97875.12;1663633;84;21168;-64
2021/04/16 13:30:45;;;;;;;0.55;0.50;;;;;;;13.21;35.87;97876.58;1663517;84;21203;-64
2021/04/16 13:33:17;;;;;;;0.60;0.53;;;;;;;13.31;38.83;97873.80;1663721;84;21613;-64
2021/04/16 13:35:54;;;;;;;1.25;0.82;;;;;;;13.39;37.61;97872.50;1663465;86;21248;-64
2021/04/16 13:38:27;;;;;;;0.70;0.62;;;;;;;13.47;37.85;97870.39;1663509;86;21195;-65
2021/04/16 13:41:00;;;;;;;1.47;0.78;;;;;;;13.60;38.96;97864.20;1663697;86;21200;-64
2021/04/16 13:43:30;;;;;;;1.00;0.75;;;;;;;13.58;36.98;97870.88;1663498;86;21164;-64
2021/04/16 13:46:07;;;;;;;1.42;0.90;;;;;;;13.68;35.46;97872.84;1663533;84;21208;-65
2021/04/16 13:48:35;;;;;;;0.72;0.60;;;;;;;13.84;37.24;97873.32;1663653;84;21223;-65
2021/04/16 13:51:05;;;;;;;0.93;0.75;;;;;;;13.78;38.96;97880.00;1664014;84;21167;-71
2021/04/16 13:53:33;;;;;;;1.17;0.85;;;;;;;13.77;38.63;97886.19;1664008;86;21179;-65
2021/04/16 13:56:04;;;;;;;2.67;1.35;;;;;;;13.78;37.14;97880.48;1664011;84;21206;-65
2021/04/16 13:58:32;;;;;;;2.72;1.37;;;;;;;13.58;34.92;97877.91;1664021;85;21167;-67
2021/04/16 14:01:02;;;;;;;1.10;0.90;;;;;;;13.49;37.29;97881.00;1663788;86;21191;-64
2021/04/16 14:03:35;;;;;;;1.82;0.88;;;;;;;13.36;39.26;97883.27;1663783;86;21183;-65
2021/04/16 14:06:22;;;;;;;1.20;0.65;;;;;;;13.18;36.99;97878.20;1663633;85;21231;-65
2021/04/16 14:11:45;;;;;;;2.33;0.90;;;;;;;12.67;39.09;97880.48;1782387;80;21156;-64
2021/04/16 14:14:19;;;;;;;1.00;0.78;;;;;;;12.35;37.41;97878.56;1784336;80;21183;-64
2021/04/16 14:16:48;;;;;;;1.00;0.88;;;;;;;12.21;40.17;97876.55;1784294;80;21219;-65
2021/04/16 14:19:43;;;;;;;1.30;1.00;;;;;;;12.10;39.78;97879.39;1784481;80;21510;-64
2021/04/16 14:22:14;;;;;;;1.67;0.85;;;;;;;12.00;39.74;97880.48;1700700;83;21605;-65
2021/04/16 14:24:42;;;;;;;1.00;0.78;;;;;;;11.83;39.70;97880.84;1700621;84;21573;-64
2021/04/16 14:27:11;;;;;;;2.47;1.02;;;;;;;11.80;39.86;97883.28;1700472;83;21192;-64
2021/04/16 14:29:39;;;;;;;1.42;1.00;;;;;;;11.74;39.22;97893.48;1700519;83;21167;-65
2021/04/16 14:32:10;;;;;;;1.02;0.85;;;;;;;11.63;39.90;97896.30;1700559;84;21572;-64
2021/04/16 14:34:39;;;;;;;1.52;1.10;;;;;;;11.77;40.51;97899.20;1700656;84;21185;-65
2021/04/16 14:37:08;;;;;;;1.20;0.95;;;;;;;11.85;39.83;97899.73;1700481;84;21159;-65
2021/04/16 14:39:36;;;;;;;1.35;0.75;;;;;;;11.80;39.49;97896.77;1700709;84;21612;-65
2021/04/16 14:42:06;;;;;;;2.17;1.20;;;;;;;11.79;39.38;97902.93;1700608;84;21164;-65